CEP5 weather

Janvier Airport
Janvier, Alberta, Canada

Public forecast

Using degrees Celsius for public forecast. Weather courtesy of forecast.io.

Closest aviation weather report (METAR) to Janvier Airport

Closest report is Fort McMurray Airport, 48.1 nm (89.0 km) NNW. Retrieved 2020/06/02 01:00 UTC (33 minutes ago):

CYMM 020100Z AUTO 29020G26KT 9SM FEW041 SCT055 BKN064 14/05 A2972 RMK SLP076 DENSITY ALT 1600FT

Closest aviation forecast (TAF) to Janvier Airport

Closest forecast is Fort McMurray Airport, 48.1 nm (89.0 km) NNW. Retrieved 2020-06-02 01:39 UTC (0 seconds ago):

TAF TAF CYMM 020038Z 0201/0213 30015G25KT P6SM BKN040 BECMG 0202/0204 30008KT FM020700 28006KT P6SM FEW040 FM021000 22006KT P6SM SCT080 BKN200 RMK FCST BASED ON AUTO OBS NXT FCST BY 020700Z